createdAt,value
2018-08-30T00:02:00.847Z,90.10
2018-08-30T00:06:09.023Z,90.40
2018-08-30T00:10:17.212Z,90.50
2018-08-30T00:14:25.383Z,90.60
2018-08-30T00:18:33.548Z,90.60
2018-08-30T00:22:41.720Z,90.40
2018-08-30T00:26:49.899Z,90.40
2018-08-30T00:30:58.065Z,90.60
2018-08-30T00:35:06.326Z,90.10
2018-08-30T00:39:14.513Z,90.30
2018-08-30T00:43:22.697Z,90.40
2018-08-30T00:47:30.855Z,90.60
2018-08-30T00:51:39.016Z,90.80
2018-08-30T00:55:47.191Z,90.90
2018-08-30T00:59:55.356Z,91.00
2018-08-30T01:04:03.523Z,91.00
2018-08-30T01:08:11.688Z,90.70
2018-08-30T01:12:19.852Z,90.80
2018-08-30T01:16:28.007Z,90.80
2018-08-30T01:20:36.184Z,90.40
2018-08-30T01:24:44.357Z,90.30
2018-08-30T01:28:52.520Z,89.80
2018-08-30T01:33:00.680Z,89.90
2018-08-30T01:37:08.811Z,89.30
2018-08-30T01:41:16.957Z,88.50
2018-08-30T01:45:25.140Z,88.70
2018-08-30T01:49:33.284Z,87.70
2018-08-30T01:53:41.431Z,86.50
2018-08-30T01:57:49.568Z,86.60
2018-08-30T02:01:57.724Z,86.70
2018-08-30T02:06:06.072Z,86.70
2018-08-30T02:10:14.229Z,86.60
2018-08-30T02:14:22.371Z,86.30
2018-08-30T02:18:30.495Z,86.90
2018-08-30T02:22:38.652Z,86.90
2018-08-30T02:26:46.785Z,87.20
2018-08-30T02:30:54.939Z,87.00
2018-08-30T02:35:03.068Z,86.90
2018-08-30T02:39:11.411Z,87.50
2018-08-30T02:43:19.544Z,87.80
2018-08-30T02:47:27.688Z,88.10
2018-08-30T02:51:35.831Z,88.50
2018-08-30T02:55:43.960Z,88.40
2018-08-30T02:59:52.141Z,88.00
2018-08-30T03:04:00.392Z,88.00
2018-08-30T03:12:16.476Z,88.00
2018-08-30T03:16:24.626Z,87.80
2018-08-30T03:20:32.764Z,87.70
2018-08-30T03:24:41.121Z,87.40
2018-08-30T03:28:49.258Z,87.10
2018-08-30T03:32:57.376Z,87.00
2018-08-30T03:37:05.583Z,86.60
2018-08-30T03:41:13.743Z,86.60
2018-08-30T03:45:21.880Z,86.40
2018-08-30T03:49:30.012Z,86.20
2018-08-30T03:53:38.169Z,86.20
2018-08-30T03:57:46.295Z,86.60
2018-08-30T04:01:54.445Z,86.40
2018-08-30T04:06:02.628Z,86.20
2018-08-30T04:10:10.775Z,86.40
2018-08-30T04:14:19.002Z,86.50
2018-08-30T04:18:27.144Z,86.70
2018-08-30T04:22:35.288Z,86.70
2018-08-30T04:26:43.421Z,86.20
2018-08-30T04:30:51.806Z,86.20
2018-08-30T04:34:59.937Z,86.10
2018-08-30T04:39:08.584Z,86.30
2018-08-30T04:43:16.716Z,86.00
2018-08-30T04:47:24.844Z,85.90
2018-08-30T04:51:32.987Z,86.00
2018-08-30T04:55:41.143Z,86.10
2018-08-30T04:59:49.284Z,86.00
2018-08-30T05:03:57.711Z,85.90
2018-08-30T05:08:05.869Z,85.90
2018-08-30T05:12:14.036Z,85.90
2018-08-30T05:16:22.225Z,85.80
2018-08-30T05:20:30.323Z,85.80
2018-08-30T05:24:38.464Z,85.70
2018-08-30T05:28:46.603Z,85.60
2018-08-30T05:32:54.748Z,85.90
2018-08-30T05:37:02.880Z,86.60
2018-08-30T05:41:11.027Z,87.00
2018-08-30T05:45:19.172Z,87.20
2018-08-30T05:49:27.292Z,87.50
2018-08-30T05:53:35.433Z,88.10
2018-08-30T05:57:43.600Z,88.70
2018-08-30T06:01:51.740Z,89.40
2018-08-30T06:05:59.880Z,90.00
2018-08-30T06:10:08.020Z,90.10
2018-08-30T06:14:16.151Z,90.40
2018-08-30T06:18:24.357Z,90.40
2018-08-30T06:22:32.510Z,90.30
2018-08-30T06:26:40.739Z,90.20
2018-08-30T06:30:48.836Z,90.10
2018-08-30T06:34:57.075Z,89.80
2018-08-30T06:39:06.448Z,89.00
2018-08-30T06:43:14.592Z,88.40
2018-08-30T06:47:22.727Z,87.80
2018-08-30T06:51:30.884Z,87.10
2018-08-30T06:55:39.019Z,87.20
2018-08-30T06:59:47.148Z,87.10
2018-08-30T07:03:55.318Z,86.80
2018-08-30T07:08:03.512Z,86.60
2018-08-30T07:12:11.645Z,86.40
2018-08-30T07:16:19.952Z,85.60
2018-08-30T07:20:28.092Z,85.20
2018-08-30T07:24:36.245Z,83.40
2018-08-30T07:28:44.384Z,81.80
2018-08-30T07:32:52.533Z,81.30
2018-08-30T07:37:00.671Z,81.30
2018-08-30T07:41:08.848Z,82.00
2018-08-30T07:45:17.019Z,82.00
2018-08-30T07:49:25.156Z,83.20
2018-08-30T07:53:33.301Z,83.60
2018-08-30T07:57:41.435Z,83.80
2018-08-30T08:01:56.336Z,83.70
2018-08-30T08:06:04.510Z,84.00
2018-08-30T08:10:12.635Z,84.20
2018-08-30T08:14:20.803Z,83.90
2018-08-30T08:18:28.948Z,82.50
2018-08-30T08:26:45.077Z,79.80
2018-08-30T08:30:53.671Z,79.50
2018-08-30T08:35:01.816Z,76.70
2018-08-30T08:39:09.950Z,75.50
2018-08-30T08:43:18.094Z,74.20
2018-08-30T08:47:26.233Z,72.30
2018-08-30T08:51:34.363Z,69.90
2018-08-30T08:55:42.505Z,70.40
2018-08-30T08:59:50.645Z,68.70
2018-08-30T09:03:58.800Z,65.90
2018-08-30T09:08:06.948Z,65.00
2018-08-30T09:12:15.080Z,63.40
2018-08-30T09:16:23.243Z,62.00
2018-08-30T09:20:31.384Z,61.10
2018-08-30T09:24:39.524Z,59.70
2018-08-30T09:28:54.504Z,58.50
2018-08-30T09:33:02.641Z,57.80
2018-08-30T09:37:12.992Z,56.10
2018-08-30T09:41:21.123Z,55.60
2018-08-30T09:45:29.261Z,55.70
2018-08-30T09:49:37.435Z,53.50
2018-08-30T09:53:45.536Z,53.10
2018-08-30T09:57:53.672Z,51.90
2018-08-30T10:02:06.050Z,51.20
2018-08-30T10:06:14.169Z,50.80
2018-08-30T10:10:22.312Z,50.60
2018-08-30T10:14:30.467Z,50.30
2018-08-30T10:18:38.758Z,50.20
2018-08-30T10:22:46.883Z,50.00
2018-08-30T10:26:55.011Z,48.90
2018-08-30T10:31:03.169Z,47.90
2018-08-30T10:35:11.304Z,48.40
2018-08-30T10:39:19.485Z,47.70
2018-08-30T10:43:27.636Z,48.20
2018-08-30T10:47:35.780Z,47.60
2018-08-30T10:51:43.905Z,46.50
2018-08-30T10:55:52.086Z,46.60
2018-08-30T11:00:00.218Z,46.20
2018-08-30T11:04:08.373Z,46.30
2018-08-30T11:08:16.531Z,45.10
2018-08-30T11:12:24.672Z,44.90
2018-08-30T11:16:32.843Z,44.50
2018-08-30T11:20:40.967Z,45.30
2018-08-30T11:24:49.094Z,46.30
2018-08-30T11:28:57.244Z,45.30
2018-08-30T11:33:05.368Z,43.90
2018-08-30T11:37:14.592Z,45.40
2018-08-30T11:41:22.782Z,46.90
2018-08-30T11:45:30.883Z,46.10
2018-08-30T11:49:39.045Z,43.60
2018-08-30T11:53:47.164Z,44.00
2018-08-30T11:57:55.313Z,45.20
2018-08-30T12:02:03.501Z,44.50
2018-08-30T12:06:11.649Z,43.30
2018-08-30T12:10:19.862Z,42.90
2018-08-30T12:14:27.936Z,42.80
2018-08-30T12:18:36.111Z,41.90
2018-08-30T12:22:44.236Z,41.20
2018-08-30T12:26:52.380Z,41.50
2018-08-30T12:31:01.543Z,40.90
2018-08-30T12:35:09.785Z,40.70
2018-08-30T12:39:17.842Z,40.30
2018-08-30T12:43:26.218Z,39.50
2018-08-30T12:47:34.585Z,39.30
2018-08-30T12:51:43.269Z,40.40
2018-08-30T12:55:51.334Z,41.30
2018-08-30T12:59:59.499Z,41.20
2018-08-30T13:04:07.748Z,41.80
2018-08-30T13:08:15.782Z,42.90
2018-08-30T13:12:24.040Z,43.60
2018-08-30T13:16:32.106Z,43.60
2018-08-30T13:20:40.279Z,42.90
2018-08-30T13:24:48.596Z,43.20
2018-08-30T13:28:56.686Z,43.20
2018-08-30T13:33:05.434Z,43.50
2018-08-30T13:37:13.580Z,43.30
2018-08-30T13:41:21.875Z,42.60
2018-08-30T13:45:29.819Z,42.20
2018-08-30T13:49:37.868Z,42.60
2018-08-30T13:53:46.105Z,42.50
2018-08-30T13:57:54.473Z,41.80
2018-08-30T14:02:02.442Z,41.60
2018-08-30T14:06:10.507Z,42.30
2018-08-30T14:10:18.914Z,42.30
2018-08-30T14:14:26.774Z,42.70
2018-08-30T14:18:34.674Z,42.40
2018-08-30T14:22:42.803Z,43.00
2018-08-30T14:26:50.994Z,43.50
2018-08-30T14:30:59.146Z,43.70
2018-08-30T14:35:07.262Z,42.80
2018-08-30T14:39:15.442Z,43.30
2018-08-30T14:43:23.536Z,42.10
2018-08-30T14:47:31.877Z,41.90
2018-08-30T14:51:39.866Z,40.90
2018-08-30T14:55:48.036Z,40.00
2018-08-30T14:59:56.177Z,39.00
2018-08-30T15:04:04.316Z,40.20
2018-08-30T15:08:12.465Z,41.40
2018-08-30T15:12:20.693Z,42.00
2018-08-30T15:16:28.736Z,42.80
2018-08-30T15:20:36.894Z,43.10
2018-08-30T15:24:45.021Z,43.30
2018-08-30T15:28:53.164Z,43.60
2018-08-30T15:33:01.321Z,43.10
2018-08-30T15:37:09.461Z,43.10
2018-08-30T15:41:17.637Z,42.30
2018-08-30T15:45:25.740Z,41.30
2018-08-30T15:49:33.859Z,40.60
2018-08-30T15:53:42.016Z,41.60
2018-08-30T15:57:50.167Z,41.50
2018-08-30T16:01:58.306Z,42.10
2018-08-30T16:06:06.448Z,42.00
2018-08-30T16:10:15.211Z,42.00
2018-08-30T16:14:23.371Z,41.70
2018-08-30T16:18:32.110Z,42.10
2018-08-30T16:22:53.024Z,42.10
2018-08-30T16:27:01.181Z,41.70
2018-08-30T16:31:09.330Z,41.70
2018-08-30T16:35:17.485Z,42.50
2018-08-30T16:39:25.620Z,42.70
2018-08-30T16:43:33.918Z,42.70
2018-08-30T16:47:41.980Z,43.60
2018-08-30T16:51:50.152Z,44.00
2018-08-30T16:55:58.337Z,45.00
2018-08-30T17:00:06.477Z,44.90
2018-08-30T17:04:14.659Z,45.20
2018-08-30T17:08:22.815Z,45.00
2018-08-30T17:12:31.004Z,44.50
2018-08-30T17:16:39.176Z,43.60
2018-08-30T17:20:50.173Z,41.10
2018-08-30T17:24:58.309Z,40.10
2018-08-30T17:29:06.453Z,39.10
2018-08-30T17:33:14.615Z,40.20
2018-08-30T17:37:22.755Z,40.00
2018-08-30T17:41:30.900Z,40.20
2018-08-30T17:45:39.060Z,40.40
2018-08-30T17:49:47.271Z,41.40
2018-08-30T17:53:55.431Z,43.10
2018-08-30T17:58:03.594Z,44.50
2018-08-30T18:02:11.732Z,46.00
2018-08-30T18:06:19.852Z,47.00
2018-08-30T18:10:27.977Z,48.20
2018-08-30T18:14:36.119Z,49.30
2018-08-30T18:18:44.267Z,51.00
2018-08-30T18:22:52.416Z,52.80
2018-08-30T18:27:00.555Z,53.80
2018-08-30T18:31:08.688Z,54.00
2018-08-30T18:35:16.838Z,53.80
2018-08-30T18:39:24.961Z,54.30
2018-08-30T18:43:33.096Z,54.30
2018-08-30T18:47:41.227Z,55.00
2018-08-30T18:51:49.376Z,56.00
2018-08-30T18:55:57.509Z,56.70
2018-08-30T19:00:06.314Z,57.20
2018-08-30T19:04:14.472Z,57.80
2018-08-30T19:08:22.656Z,57.90
2018-08-30T19:12:30.776Z,58.70
2018-08-30T19:16:44.332Z,59.10
2018-08-30T19:20:52.488Z,59.80
2018-08-30T19:25:05.896Z,60.10
2018-08-30T19:29:14.449Z,60.40
2018-08-30T19:33:22.576Z,61.20
2018-08-30T19:37:30.712Z,61.90
2018-08-30T19:41:38.836Z,63.30
2018-08-30T19:45:46.996Z,63.90
2018-08-30T19:49:55.138Z,63.40
2018-08-30T19:54:03.272Z,63.70
2018-08-30T19:58:11.432Z,64.30
2018-08-30T20:02:19.599Z,65.10
2018-08-30T20:06:27.728Z,65.50
2018-08-30T20:10:35.924Z,65.70
2018-08-30T20:14:44.053Z,66.00
2018-08-30T20:18:52.220Z,66.50
2018-08-30T20:23:00.352Z,66.70
2018-08-30T20:27:08.981Z,67.60
2018-08-30T20:31:17.115Z,68.10
2018-08-30T20:35:25.284Z,68.30
2018-08-30T20:39:33.416Z,68.80
2018-08-30T20:43:41.552Z,69.40
2018-08-30T20:47:49.727Z,69.90
2018-08-30T20:51:57.984Z,71.10
2018-08-30T21:00:14.287Z,70.90
2018-08-30T21:04:22.440Z,71.80
2018-08-30T21:08:30.580Z,71.80
2018-08-30T21:12:38.716Z,71.40
2018-08-30T21:16:46.846Z,71.20
2018-08-30T21:20:54.992Z,71.80
2018-08-30T21:25:03.124Z,72.10
2018-08-30T21:29:11.262Z,71.90
2018-08-30T21:33:19.400Z,72.40
2018-08-30T21:37:27.540Z,72.60
2018-08-30T21:41:35.672Z,72.60
2018-08-30T21:45:43.800Z,72.70
2018-08-30T21:49:51.956Z,72.60
2018-08-30T21:54:00.099Z,72.80
2018-08-30T21:58:08.251Z,73.00
2018-08-30T22:02:16.414Z,73.00
2018-08-30T22:06:24.789Z,73.30
2018-08-30T22:10:32.999Z,72.90
2018-08-30T22:14:41.134Z,72.70
2018-08-30T22:18:49.263Z,73.00
2018-08-30T22:27:05.333Z,74.10
2018-08-30T22:31:13.688Z,74.80
2018-08-30T22:39:29.724Z,75.00
2018-08-30T22:43:37.845Z,75.00
2018-08-30T22:47:45.964Z,75.00
2018-08-30T22:51:54.102Z,75.40
2018-08-30T22:56:02.253Z,75.50
2018-08-30T23:00:10.379Z,75.40
2018-08-30T23:04:18.491Z,75.10
2018-08-30T23:08:26.624Z,75.10
2018-08-30T23:12:34.769Z,75.80
2018-08-30T23:16:42.905Z,76.20
2018-08-30T23:20:51.032Z,76.60
2018-08-30T23:24:59.163Z,76.40
2018-08-30T23:29:07.292Z,76.60
2018-08-30T23:33:15.460Z,76.80
2018-08-30T23:37:23.584Z,76.20
2018-08-30T23:41:31.695Z,76.40
2018-08-30T23:45:39.829Z,77.20
2018-08-30T23:49:48.000Z,77.20
2018-08-30T23:53:56.148Z,76.80
2018-08-30T23:58:15.810Z,77.10
